Lagoa Alegre, Brazil
Current Conditions -  °F | °C
As of 2:00 PM on Friday 24 Oct 2014 (Local Time) from SBTE Reporting Station
Scattered Clouds Scattered Clouds  
Wind Chill: 97°   Ceiling: Unl
Heat Index: 98°   Visibility: 6mi
Dew Point: 63°   Wind: 10mph
Humidity: 32%   Direction: 170°S
Pressure: 29.77"   Gusts: NA
Location:  4.52°S, 42.62°W
Report Text: SBTE 241700Z 17009KT 9999 SCT030 36/17 Q1008
Loading
Personal Weather Stations






























Interactive Weather Map
Tropical Storm Tracking
New forecast layout! Learn more

10-Day Weather Forecast

Advertisements
Track Severe Weather on mobile